Time;durP1;ratioP1;P1;durP2;ratioP2;P2;SDS_P1;SDS_P2;PMS_P1;PMS_P2;Temp;Humidity;BMP_temperature;BMP_pressure;BME280_temperature;BME280_humidity;BME280_pressure;Samples;Min_cycle;Max_cycle;Signal;HPM_P1;HPM_P2
2024/02/12 00:01:10;;;;;;;3.97;2.53;;;;;;;;;;6093355;23;20061;-74
2024/02/12 00:03:39;;;;;;;5.82;2.38;;;;;;;;;;6091344;23;20026;-74
2024/02/12 00:06:05;;;;;;;5.78;2.42;;;;;;;;;;6091364;23;20013;-74
2024/02/12 00:08:31;;;;;;;3.97;2.28;;;;;;;;;;6093504;23;20335;-73
2024/02/12 00:10:59;;;;;;;3.55;2.33;;;;;;;;;;6092625;23;20014;-73
2024/02/12 00:13:24;;;;;;;4.75;2.22;;;;;;;;;;6091683;23;20010;-75
2024/02/12 00:15:50;;;;;;;5.43;2.45;;;;;;;;;;6092871;23;20029;-74
2024/02/12 00:18:15;;;;;;;5.43;2.55;;;;;;;;;;6091054;23;20318;-77
2024/02/12 00:20:41;;;;;;;4.43;2.97;;;;;;;;;;6115912;23;19999;-74
2024/02/12 00:23:08;;;;;;;3.22;2.20;;;;;;;;;;6091201;23;20021;-75
2024/02/12 00:25:33;;;;;;;3.38;2.33;;;;;;;;;;6091508;23;20432;-73
2024/02/12 00:27:59;;;;;;;5.05;2.47;;;;;;;;;;6092764;23;20065;-74
2024/02/12 00:30:24;;;;;;;5.53;2.47;;;;;;;;;;6091852;23;20013;-76
2024/02/12 00:32:50;;;;;;;4.30;2.45;;;;;;;;;;6093345;23;20431;-75
2024/02/12 00:35:15;;;;;;;5.80;2.55;;;;;;;;;;6091304;23;20078;-74
2024/02/12 00:37:42;;;;;;;3.97;2.33;;;;;;;;;;6093976;23;20435;-74
2024/02/12 00:40:08;;;;;;;4.03;2.13;;;;;;;;;;6093069;23;20007;-74
2024/02/12 00:42:38;;;;;;;4.75;2.10;;;;;;;;;;6116241;23;20006;-75
2024/02/12 00:45:10;;;;;;;4.00;2.60;;;;;;;;;;6095750;23;20007;-76
2024/02/12 00:47:38;;;;;;;6.55;2.20;;;;;;;;;;6095101;23;19999;-75
2024/02/12 00:50:07;;;;;;;3.67;2.25;;;;;;;;;;6093115;23;20101;-75
2024/02/12 00:52:39;;;;;;;5.20;2.25;;;;;;;;;;6092761;23;20029;-73
2024/02/12 00:55:06;;;;;;;6.00;2.50;;;;;;;;;;6093488;23;20449;-75
2024/02/12 00:57:34;;;;;;;3.25;2.15;;;;;;;;;;6119395;23;20103;-74
2024/02/12 01:00:00;;;;;;;3.90;2.60;;;;;;;;;;6094704;23;20010;-73
2024/02/12 01:02:25;;;;;;;4.35;2.50;;;;;;;;;;6095536;23;20010;-74
2024/02/12 01:04:52;;;;;;;7.20;2.45;;;;;;;;;;6097015;23;20040;-75
2024/02/12 01:07:19;;;;;;;3.42;2.22;;;;;;;;;;6095578;23;20018;-74
2024/02/12 01:09:45;;;;;;;4.72;2.72;;;;;;;;;;6095724;23;20311;-75
2024/02/12 01:12:10;;;;;;;4.60;2.20;;;;;;;;;;6096397;23;20427;-73
2024/02/12 01:14:37;;;;;;;2.53;2.17;;;;;;;;;;6117850;23;20006;-75
2024/02/12 01:17:04;;;;;;;3.13;2.13;;;;;;;;;;6099180;23;20006;-75
2024/02/12 01:19:36;;;;;;;3.35;2.17;;;;;;;;;;6118247;23;20077;-75
2024/02/12 01:22:03;;;;;;;5.20;2.30;;;;;;;;;;6092737;23;20344;-73
2024/02/12 01:24:31;;;;;;;3.97;1.95;;;;;;;;;;6117436;23;20010;-72
2024/02/12 01:26:57;;;;;;;7.50;2.25;;;;;;;;;;6094796;23;20008;-70
2024/02/12 01:29:24;;;;;;;2.90;1.98;;;;;;;;;;6094766;23;20093;-74
2024/02/12 01:31:53;;;;;;;4.63;2.53;;;;;;;;;;6094965;23;20009;-75
2024/02/12 01:34:21;;;;;;;5.03;1.92;;;;;;;;;;6117275;23;20014;-74
2024/02/12 01:36:47;;;;;;;10.77;2.50;;;;;;;;;;6092963;23;20006;-73
2024/02/12 01:39:12;;;;;;;4.80;2.10;;;;;;;;;;6094190;23;20077;-76
2024/02/12 01:41:38;;;;;;;2.60;2.00;;;;;;;;;;6092806;23;20538;-76
2024/02/12 01:44:04;;;;;;;5.90;2.28;;;;;;;;;;6092806;23;20014;-74
2024/02/12 01:46:30;;;;;;;4.82;2.00;;;;;;;;;;6092785;23;20038;-75
2024/02/12 01:48:57;;;;;;;2.97;2.38;;;;;;;;;;6092888;23;20006;-73
2024/02/12 01:51:25;;;;;;;3.90;2.00;;;;;;;;;;6092253;23;20208;-75
2024/02/12 01:53:53;;;;;;;2.78;1.50;;;;;;;;;;6094498;23;20039;-76
2024/02/12 01:56:20;;;;;;;4.65;2.20;;;;;;;;;;6094267;23;20006;-75
2024/02/12 01:58:46;;;;;;;4.40;1.80;;;;;;;;;;6092533;23;20021;-77
2024/02/12 02:01:16;;;;;;;3.65;1.77;;;;;;;;;;6117051;23;20010;-75
2024/02/12 02:03:42;;;;;;;3.80;2.47;;;;;;;;;;6093860;23;20040;-76
2024/02/12 02:06:08;;;;;;;2.03;1.83;;;;;;;;;;6093832;23;20006;-74
2024/02/12 02:08:36;;;;;;;2.47;1.85;;;;;;;;;;6068393;23;20459;-74
2024/02/12 02:11:11;;;;;;;3.72;1.70;;;;;;;;;;6094892;23;20006;-74
2024/02/12 02:13:42;;;;;;;2.60;2.00;;;;;;;;;;6092677;23;20010;-75
2024/02/12 02:16:12;;;;;;;5.05;2.20;;;;;;;;;;6092618;23;20016;-74
2024/02/12 02:18:38;;;;;;;3.50;2.03;;;;;;;;;;6092359;23;20021;-76
2024/02/12 02:21:04;;;;;;;5.25;2.53;;;;;;;;;;6094134;23;20328;-74
2024/02/12 02:23:30;;;;;;;4.00;2.30;;;;;;;;;;6093882;23;20077;-75
2024/02/12 02:25:56;;;;;;;5.60;2.40;;;;;;;;;;6092550;23;20276;-76
2024/02/12 02:28:25;;;;;;;2.22;1.95;;;;;;;;;;6091779;23;20053;-72
2024/02/12 02:30:52;;;;;;;4.75;3.33;;;;;;;;;;6116685;23;20003;-74
2024/02/12 02:33:18;;;;;;;6.90;1.60;;;;;;;;;;6116992;23;20017;-73
2024/02/12 02:35:44;;;;;;;3.45;1.92;;;;;;;;;;6093454;23;20010;-72
2024/02/12 02:38:17;;;;;;;4.15;2.47;;;;;;;;;;6092703;23;20018;-75
2024/02/12 02:40:43;;;;;;;3.38;1.85;;;;;;;;;;6068692;23;20021;-75
2024/02/12 02:43:09;;;;;;;3.28;2.10;;;;;;;;;;6092128;23;20010;-74
2024/02/12 02:45:35;;;;;;;7.57;1.90;;;;;;;;;;6094272;23;20026;-75
2024/02/12 02:48:02;;;;;;;4.50;2.33;;;;;;;;;;6093318;23;20692;-75
2024/02/12 02:50:29;;;;;;;3.85;1.70;;;;;;;;;;6091771;23;20014;-75
2024/02/12 02:52:59;;;;;;;4.15;1.67;;;;;;;;;;6092113;23;20146;-74
2024/02/12 02:55:28;;;;;;;3.85;1.65;;;;;;;;;;6093700;23;20652;-75
2024/02/12 02:58:01;;;;;;;3.30;1.80;;;;;;;;;;6096844;23;20021;-73
2024/02/12 03:00:42;;;;;;;4.20;2.22;;;;;;;;;;6093618;23;20439;-74
2024/02/12 03:03:08;;;;;;;3.33;1.80;;;;;;;;;;6093131;23;20029;-74
2024/02/12 03:05:34;;;;;;;5.32;2.70;;;;;;;;;;6094149;23;20014;-75
2024/02/12 03:08:06;;;;;;;5.10;2.22;;;;;;;;;;6093396;23;20014;-74
2024/02/12 03:10:31;;;;;;;;;;;;;;;;;;6094153;23;20384;-73
2024/02/12 03:12:58;;;;;;;4.80;1.73;;;;;;;;;;6093741;23;19960;-74
2024/02/12 03:15:23;;;;;;;3.75;1.63;;;;;;;;;;6091770;23;20007;-74
2024/02/12 03:17:49;;;;;;;5.78;2.10;;;;;;;;;;6091766;23;20066;-75
2024/02/12 03:20:15;;;;;;;3.63;2.30;;;;;;;;;;6093558;23;20006;-73
2024/02/12 03:22:42;;;;;;;2.00;1.80;;;;;;;;;;6091428;23;20263;-74
2024/02/12 03:25:09;;;;;;;2.88;1.80;;;;;;;;;;6091368;23;20169;-74
2024/02/12 03:27:36;;;;;;;3.40;1.70;;;;;;;;;;6091643;23;20097;-74
2024/02/12 03:30:05;;;;;;;5.47;2.00;;;;;;;;;;6092693;23;20011;-74
2024/02/12 03:32:30;;;;;;;5.30;1.95;;;;;;;;;;6092348;23;20506;-75
2024/02/12 03:34:57;;;;;;;6.10;2.70;;;;;;;;;;6091535;23;20038;-74
2024/02/12 03:37:25;;;;;;;3.25;1.63;;;;;;;;;;6093529;23;20002;-75
2024/02/12 03:39:52;;;;;;;4.57;2.05;;;;;;;;;;6091802;23;20038;-75
2024/02/12 03:42:25;;;;;;;2.22;1.77;;;;;;;;;;6091750;23;20014;-74
2024/02/12 03:44:52;;;;;;;2.22;1.77;;;;;;;;;;6091674;23;20006;-76
2024/02/12 03:47:18;;;;;;;2.55;1.95;;;;;;;;;;6091438;23;20006;-73
2024/02/12 04:00:42;;;;;;;6.20;1.95;;;;;;;;;;6093927;23;20012;-75
2024/02/12 04:03:08;;;;;;;4.10;1.77;;;;;;;;;;6106504;23;20006;-74
2024/02/12 04:05:35;;;;;;;1.95;1.73;;;;;;;;;;6115360;23;20057;-73
2024/02/12 04:08:04;;;;;;;3.80;2.10;;;;;;;;;;6103640;23;20412;-75
2024/02/12 04:10:31;;;;;;;3.85;1.60;;;;;;;;;;6091050;23;20288;-74
2024/02/12 04:12:56;;;;;;;1.67;1.58;;;;;;;;;;6115762;23;20428;-74
2024/02/12 04:15:23;;;;;;;2.95;1.70;;;;;;;;;;6091146;23;20006;-73
2024/02/12 04:17:50;;;;;;;2.42;1.80;;;;;;;;;;6116074;23;20010;-73
2024/02/12 04:20:17;;;;;;;1.73;1.60;;;;;;;;;;6093631;23;20057;-75
2024/02/12 04:22:47;;;;;;;3.75;2.08;;;;;;;;;;6093464;23;20033;-74
2024/02/12 04:25:13;;;;;;;3.17;1.40;;;;;;;;;;6091373;23;20012;-76
2024/02/12 04:27:41;;;;;;;2.90;1.70;;;;;;;;;;6091948;23;20398;-75
2024/02/12 04:30:10;;;;;;;2.53;1.70;;;;;;;;;;6091160;23;20006;-74
2024/02/12 04:32:37;;;;;;;4.85;1.55;;;;;;;;;;6093659;23;20007;-75
2024/02/12 04:35:04;;;;;;;6.43;1.75;;;;;;;;;;6093525;23;20065;-74
2024/02/12 04:37:30;;;;;;;3.25;1.85;;;;;;;;;;6092435;23;20057;-74
2024/02/12 04:39:56;;;;;;;3.50;1.30;;;;;;;;;;6091305;23;20007;-73
2024/02/12 04:42:21;;;;;;;3.55;1.55;;;;;;;;;;6091416;23;20361;-74
2024/02/12 04:44:47;;;;;;;3.10;1.85;;;;;;;;;;6091247;23;20069;-73
2024/02/12 04:47:12;;;;;;;3.47;1.90;;;;;;;;;;6090848;23;20022;-76
2024/02/12 04:49:38;;;;;;;2.42;1.80;;;;;;;;;;6093004;23;20093;-74
2024/02/12 04:52:04;;;;;;;2.38;1.55;;;;;;;;;;6092231;23;20027;-74
2024/02/12 04:54:30;;;;;;;2.50;1.92;;;;;;;;;;6091593;23;20012;-73
2024/02/12 04:56:56;;;;;;;3.17;1.63;;;;;;;;;;6065816;23;20098;-74
2024/02/12 04:59:22;;;;;;;5.80;1.55;;;;;;;;;;6065556;23;20013;-76
2024/02/12 05:01:48;;;;;;;3.78;1.63;;;;;;;;;;6091304;23;20010;-76
2024/02/12 05:04:17;;;;;;;3.53;1.48;;;;;;;;;;6065708;23;20018;-77
2024/02/12 05:06:43;;;;;;;2.65;1.55;;;;;;;;;;6065941;23;20010;-74
2024/02/12 05:09:11;;;;;;;3.38;1.85;;;;;;;;;;6065697;23;20085;-74
2024/02/12 05:11:37;;;;;;;2.30;1.52;;;;;;;;;;6065998;23;20011;-75
2024/02/12 05:14:03;;;;;;;2.20;1.75;;;;;;;;;;6066123;23;20428;-73
2024/02/12 05:16:34;;;;;;;2.25;1.50;;;;;;;;;;6041879;23;20014;-74
2024/02/12 05:24:30;;;;;;;2.15;1.75;;;;;;;;;;6091453;23;20086;-76
2024/02/12 05:26:57;;;;;;;2.55;1.65;;;;;;;;;;6066138;23;20364;-74
2024/02/12 05:29:26;;;;;;;3.25;1.90;;;;;;;;;;6042700;23;20109;-74
2024/02/12 05:31:53;;;;;;;6.35;1.88;;;;;;;;;;6067233;23;20406;-76
2024/02/12 05:34:20;;;;;;;2.92;1.77;;;;;;;;;;6066743;23;20440;-76
2024/02/12 05:36:55;;;;;;;3.55;1.45;;;;;;;;;;6092735;23;20009;-74
2024/02/12 05:39:21;;;;;;;4.07;2.30;;;;;;;;;;6066925;23;20094;-75
2024/02/12 05:41:47;;;;;;;3.92;1.95;;;;;;;;;;6066822;23;20021;-74
2024/02/12 05:44:14;;;;;;;4.13;2.50;;;;;;;;;;6066882;23;20010;-74
2024/02/12 05:46:41;;;;;;;3.10;2.00;;;;;;;;;;6067228;23;20447;-74
2024/02/12 05:49:07;;;;;;;3.15;1.83;;;;;;;;;;6066911;23;20421;-75
2024/02/12 05:51:37;;;;;;;4.47;2.10;;;;;;;;;;6007825;23;1406019;-74
2024/02/12 05:54:02;;;;;;;1.67;1.55;;;;;;;;;;6076143;23;20015;-74
2024/02/12 05:56:29;;;;;;;4.78;1.85;;;;;;;;;;6094403;23;20017;-74
2024/02/12 05:58:54;;;;;;;3.50;2.03;;;;;;;;;;6095382;23;20038;-75
2024/02/12 06:01:21;;;;;;;3.88;2.22;;;;;;;;;;6093409;23;20010;-76
2024/02/12 06:03:47;;;;;;;1.95;1.58;;;;;;;;;;6094309;23;20010;-74
2024/02/12 06:06:13;;;;;;;2.20;1.92;;;;;;;;;;6116877;23;20033;-74
2024/02/12 06:08:39;;;;;;;3.67;2.00;;;;;;;;;;6092785;23;20014;-75
2024/02/12 06:11:05;;;;;;;3.85;2.30;;;;;;;;;;6092663;23;20006;-74
2024/02/12 06:13:31;;;;;;;1.85;1.70;;;;;;;;;;6094147;23;20030;-74
2024/02/12 06:15:56;;;;;;;2.50;2.15;;;;;;;;;;6090481;23;20069;-74
2024/02/12 06:18:22;;;;;;;3.25;1.67;;;;;;;;;;6084231;23;20041;-74
2024/02/12 06:20:50;;;;;;;2.30;1.60;;;;;;;;;;6091793;23;20435;-74
2024/02/12 06:23:19;;;;;;;3.45;2.00;;;;;;;;;;6087779;23;20010;-78
2024/02/12 06:25:45;;;;;;;2.17;1.95;;;;;;;;;;6094121;23;20037;-74
2024/02/12 06:28:10;;;;;;;6.70;3.20;;;;;;;;;;6117758;23;20064;-75
2024/02/12 06:30:36;;;;;;;3.28;2.15;;;;;;;;;;6094941;23;20014;-73
2024/02/12 06:33:04;;;;;;;3.65;2.42;;;;;;;;;;6094179;23;20270;-74
2024/02/12 06:35:30;;;;;;;4.95;1.90;;;;;;;;;;6116825;23;20038;-74
2024/02/12 06:37:56;;;;;;;3.80;2.35;;;;;;;;;;6094319;23;20003;-74
2024/02/12 06:40:22;;;;;;;2.88;1.95;;;;;;;;;;6091474;23;20044;-76
2024/02/12 06:42:49;;;;;;;6.80;2.25;;;;;;;;;;6091974;23;20014;-75
2024/02/12 06:45:16;;;;;;;4.88;2.00;;;;;;;;;;6093848;23;20010;-76
2024/02/12 06:47:45;;;;;;;1.98;1.73;;;;;;;;;;6092511;23;20002;-74
2024/02/12 06:50:12;;;;;;;3.15;1.90;;;;;;;;;;6117840;23;20085;-77
2024/02/12 06:52:39;;;;;;;2.67;2.20;;;;;;;;;;6091586;23;20018;-74
2024/02/12 06:55:10;;;;;;;2.70;2.03;;;;;;;;;;6092501;23;20006;-77
2024/02/12 06:57:38;;;;;;;3.10;1.85;;;;;;;;;;6085825;23;20431;-75
2024/02/12 07:00:06;;;;;;;3.03;2.03;;;;;;;;;;6089045;23;20090;-74
2024/02/12 07:02:34;;;;;;;4.50;1.65;;;;;;;;;;6093125;23;20203;-77
2024/02/12 07:05:04;;;;;;;2.65;1.65;;;;;;;;;;6117300;23;20010;-75
2024/02/12 07:07:34;;;;;;;4.07;2.03;;;;;;;;;;6092113;23;20014;-77
2024/02/12 07:10:00;;;;;;;5.30;2.03;;;;;;;;;;6095382;23;20090;-75
2024/02/12 07:12:26;;;;;;;2.47;1.65;;;;;;;;;;6081172;23;20125;-75
2024/02/12 07:14:52;;;;;;;3.35;2.05;;;;;;;;;;6070688;23;20487;-75
2024/02/12 07:17:19;;;;;;;3.15;1.73;;;;;;;;;;6089120;23;20040;-74
2024/02/12 07:19:51;;;;;;;2.45;1.83;;;;;;;;;;6091563;23;20258;-76
2024/02/12 07:22:21;;;;;;;3.33;1.90;;;;;;;;;;6070801;23;20411;-76
2024/02/12 07:24:51;;;;;;;7.65;1.92;;;;;;;;;;6094551;23;20014;-72
2024/02/12 07:27:18;;;;;;;2.72;1.70;;;;;;;;;;6093982;23;20038;-74
2024/02/12 07:29:51;;;;;;;2.75;1.98;;;;;;;;;;6070117;23;20514;-77
2024/02/12 07:32:17;;;;;;;2.67;1.80;;;;;;;;;;6094869;23;20014;-75
2024/02/12 07:34:44;;;;;;;2.25;1.88;;;;;;;;;;6117714;23;20376;-75
2024/02/12 07:37:10;;;;;;;6.23;2.20;;;;;;;;;;6092400;23;20792;-76
2024/02/12 07:39:39;;;;;;;4.35;2.50;;;;;;;;;;6091069;23;20110;-75
2024/02/12 07:42:13;;;;;;;5.70;1.95;;;;;;;;;;6069715;23;20018;-76
2024/02/12 07:44:41;;;;;;;5.00;1.85;;;;;;;;;;6098459;23;20037;-76
2024/02/12 07:47:07;;;;;;;3.88;2.08;;;;;;;;;;6072138;23;20021;-76
2024/02/12 07:49:36;;;;;;;4.85;2.10;;;;;;;;;;6095759;23;20006;-77
2024/02/12 07:52:02;;;;;;;4.88;2.25;;;;;;;;;;6095975;23;20081;-79
2024/02/12 07:54:29;;;;;;;4.10;2.10;;;;;;;;;;6097278;23;20403;-72
2024/02/12 07:56:56;;;;;;;6.05;1.90;;;;;;;;;;6070607;23;20089;-78
2024/02/12 07:59:23;;;;;;;4.68;1.90;;;;;;;;;;6070625;23;20329;-75
2024/02/12 08:01:51;;;;;;;3.20;2.20;;;;;;;;;;6095750;23;20362;-77
2024/02/12 08:04:21;;;;;;;2.95;1.75;;;;;;;;;;6096641;23;20010;-71
2024/02/12 08:06:48;;;;;;;2.20;1.85;;;;;;;;;;6096987;23;20419;-75
2024/02/12 08:09:17;;;;;;;3.15;1.70;;;;;;;;;;6067760;23;20105;-75
2024/02/12 08:11:45;;;;;;;2.55;1.65;;;;;;;;;;6104697;23;20010;-74
2024/02/12 08:14:11;;;;;;;2.90;1.40;;;;;;;;;;6109542;23;20022;-75
2024/02/12 08:16:37;;;;;;;4.20;1.73;;;;;;;;;;6104907;23;20078;-78
2024/02/12 08:19:04;;;;;;;7.05;1.90;;;;;;;;;;6115551;23;20006;-76
2024/02/12 08:21:58;;;;;;;1.52;1.40;;;;;;;;;;6119502;23;20013;-75
2024/02/12 08:25:06;;;;;;;1.45;1.20;;;;;;;;;;6093742;23;20006;-73
2024/02/12 08:27:32;;;;;;;2.63;1.48;;;;;;;;;;6078160;23;20376;-72
2024/02/12 08:30:01;;;;;;;3.70;1.75;;;;;;;;;;6095315;23;20074;-77
2024/02/12 08:32:28;;;;;;;2.95;1.38;;;;;;;;;;6097610;23;20002;-73
2024/02/12 08:34:54;;;;;;;3.50;1.67;;;;;;;;;;6122083;23;20447;-75
2024/02/12 08:37:26;;;;;;;2.78;1.60;;;;;;;;;;6072601;23;20424;-74
2024/02/12 08:40:18;;;;;;;;;;;;;;;;;;6091448;23;20006;-77
2024/02/12 08:42:46;;;;;;;5.00;1.75;;;;;;;;;;6092134;23;20338;-77
2024/02/12 08:45:16;;;;;;;4.18;2.00;;;;;;;;;;6098168;23;20010;-76
2024/02/12 08:47:48;;;;;;;1.70;1.40;;;;;;;;;;6096928;23;20074;-78
2024/02/12 08:50:19;;;;;;;1.98;1.50;;;;;;;;;;6094510;23;20034;-77
2024/02/12 08:52:45;;;;;;;1.88;1.50;;;;;;;;;;6121200;23;20026;-76
2024/02/12 08:55:11;;;;;;;2.88;1.60;;;;;;;;;;6095030;23;20006;-75
2024/02/12 08:57:44;;;;;;;1.75;1.42;;;;;;;;;;6092382;23;20407;-78
2024/02/12 09:00:12;;;;;;;1.88;1.15;;;;;;;;;;6088827;23;20010;-74
2024/02/12 09:02:44;;;;;;;2.53;1.20;;;;;;;;;;6095557;23;20006;-76
2024/02/12 09:05:11;;;;;;;3.88;2.00;;;;;;;;;;6049552;23;20014;-74
2024/02/12 09:07:41;;;;;;;1.23;1.05;;;;;;;;;;6096679;23;20017;-77
2024/02/12 09:10:17;;;;;;;2.55;1.25;;;;;;;;;;6074584;23;20455;-78
2024/02/12 09:12:46;;;;;;;2.60;1.45;;;;;;;;;;6097756;23;20050;-75
2024/02/12 09:15:17;;;;;;;2.67;1.30;;;;;;;;;;6095230;23;20010;-73
2024/02/12 09:17:45;;;;;;;1.77;1.30;;;;;;;;;;6098102;23;20010;-72
2024/02/12 09:20:16;;;;;;;1.70;1.30;;;;;;;;;;6095714;23;20424;-77
2024/02/12 09:22:43;;;;;;;4.80;2.13;;;;;;;;;;6087913;23;20040;-74
2024/02/12 09:25:12;;;;;;;3.33;1.23;;;;;;;;;;6071943;23;20442;-73
2024/02/12 09:27:52;;;;;;;2.60;1.10;;;;;;;;;;6096488;23;20089;-78
2024/02/12 09:30:23;;;;;;;3.25;1.45;;;;;;;;;;6097008;23;20002;-75
2024/02/12 09:32:50;;;;;;;1.92;1.05;;;;;;;;;;6099447;23;20041;-75
2024/02/12 09:35:17;;;;;;;1.25;0.85;;;;;;;;;;6096907;23;20010;-75
2024/02/12 09:37:43;;;;;;;1.13;0.88;;;;;;;;;;6098029;23;20494;-74
2024/02/12 09:40:11;;;;;;;2.30;1.00;;;;;;;;;;6095974;23;20077;-76
2024/02/12 09:42:40;;;;;;;1.58;0.93;;;;;;;;;;6120315;23;20016;-74
2024/02/12 09:45:11;;;;;;;2.75;0.93;;;;;;;;;;6098757;23;20037;-75
2024/02/12 09:47:38;;;;;;;1.88;1.00;;;;;;;;;;6095750;23;20014;-75
2024/02/12 09:50:07;;;;;;;1.17;0.90;;;;;;;;;;6116132;23;20002;-74
2024/02/12 09:52:34;;;;;;;2.72;1.00;;;;;;;;;;6093624;23;20202;-77
2024/02/12 09:54:59;;;;;;;1.02;0.80;;;;;;;;;;6118936;23;20010;-76
2024/02/12 09:57:26;;;;;;;1.58;0.77;;;;;;;;;;6099051;23;20002;-76
2024/02/12 09:59:56;;;;;;;1.85;1.00;;;;;;;;;;6096538;23;20010;-75
2024/02/12 10:02:24;;;;;;;2.10;1.25;;;;;;;;;;6097347;23;20008;-75
2024/02/12 10:04:51;;;;;;;1.20;0.90;;;;;;;;;;6094714;23;20038;-78
2024/02/12 10:07:16;;;;;;;1.05;0.80;;;;;;;;;;6096042;23;20010;-74
2024/02/12 10:09:42;;;;;;;1.70;1.02;;;;;;;;;;6095050;23;20335;-78
2024/02/12 10:12:08;;;;;;;2.88;0.95;;;;;;;;;;6095871;23;20018;-77
2024/02/12 10:14:36;;;;;;;1.10;1.00;;;;;;;;;;6098376;23;20439;-76
2024/02/12 10:17:05;;;;;;;1.08;0.77;;;;;;;;;;6097914;23;20092;-74
2024/02/12 10:19:41;;;;;;;1.13;0.93;;;;;;;;;;6095436;23;20011;-77
2024/02/12 10:22:06;;;;;;;1.00;0.80;;;;;;;;;;6101018;23;20006;-73
2024/02/12 10:24:38;;;;;;;1.23;0.90;;;;;;;;;;6123394;23;20486;-76
2024/02/12 10:27:07;;;;;;;;;;;;;;;;;;6095111;23;20075;-75
2024/02/12 10:29:32;;;;;;;2.95;0.90;;;;;;;;;;6094910;23;19905;-72
2024/02/12 10:31:59;;;;;;;0.85;0.80;;;;;;;;;;6116845;23;20430;-73
2024/02/12 10:34:29;;;;;;;1.35;0.80;;;;;;;;;;6097361;23;20076;-75
2024/02/12 10:37:04;;;;;;;1.55;0.90;;;;;;;;;;6095934;23;20010;-72
2024/02/12 10:39:31;;;;;;;0.57;0.55;;;;;;;;;;6092574;23;20017;-75
2024/02/12 10:42:05;;;;;;;0.80;0.77;;;;;;;;;;6095517;23;20010;-72
2024/02/12 10:44:52;;;;;;;2.20;0.85;;;;;;;;;;6086729;23;20014;-72
2024/02/12 10:47:19;;;;;;;0.85;0.65;;;;;;;;;;6091615;23;20014;-75
2024/02/12 10:49:48;;;;;;;1.50;1.27;;;;;;;;;;6088530;23;20089;-73
2024/02/12 10:52:18;;;;;;;1.08;0.77;;;;;;;;;;6089899;23;20026;-72
2024/02/12 10:54:50;;;;;;;0.73;0.60;;;;;;;;;;6088574;23;20367;-72
2024/02/12 10:57:16;;;;;;;2.10;0.98;;;;;;;;;;6045175;23;20415;-72
2024/02/12 10:59:42;;;;;;;0.50;0.47;;;;;;;;;;6041531;23;20439;-72
2024/02/12 11:02:10;;;;;;;0.63;0.60;;;;;;;;;;6067903;23;20010;-72
2024/02/12 11:04:45;;;;;;;1.95;0.80;;;;;;;;;;6067935;23;20006;-72
2024/02/12 11:07:16;;;;;;;0.60;0.60;;;;;;;;;;6066807;23;20338;-69
2024/02/12 11:09:42;;;;;;;3.72;0.60;;;;;;;;;;6093975;23;20006;-71
2024/02/12 11:12:24;;;;;;;1.13;0.85;;;;;;;;;;6065275;23;20011;-72
2024/02/12 11:14:50;;;;;;;0.85;0.60;;;;;;;;;;6069748;23;20309;-72
2024/02/12 11:17:32;;;;;;;1.55;0.60;;;;;;;;;;6070867;23;20018;-73
2024/02/12 11:20:05;;;;;;;2.05;0.80;;;;;;;;;;6045080;23;20006;-73
2024/02/12 11:22:44;;;;;;;1.98;0.57;;;;;;;;;;6068052;23;20007;-71
2024/02/12 11:25:18;;;;;;;1.50;0.73;;;;;;;;;;6023125;23;20011;-75
2024/02/12 11:28:02;;;;;;;0.80;0.80;;;;;;;;;;6045110;23;20018;-71
2024/02/12 11:30:42;;;;;;;3.17;1.05;;;;;;;;;;6005459;23;20529;-74
2024/02/12 11:33:24;;;;;;;53.22;11.20;;;;;;;;;;5984047;23;20075;-74
2024/02/12 11:36:10;;;;;;;14.35;2.80;;;;;;;;;;6006522;23;20019;-72
2024/02/12 11:38:52;;;;;;;1.20;0.80;;;;;;;;;;5982520;23;20011;-75
2024/02/12 11:41:19;;;;;;;3.92;0.90;;;;;;;;;;5982213;23;20026;-71
2024/02/12 11:44:24;;;;;;;0.85;0.50;;;;;;;;;;5956655;23;20019;-71
2024/02/12 11:46:59;;;;;;;1.80;0.93;;;;;;;;;;6003624;23;20079;-70
2024/02/12 11:52:17;;;;;;;0.77;0.77;;;;;;;;;;6154000;23;20025;-79
2024/02/12 11:54:53;;;;;;;;;;;;;;;;;;6151865;23;20029;-87
2024/02/12 11:57:23;;;;;;;1.40;0.80;;;;;;;;;;6095921;23;19939;-72
2024/02/12 11:59:49;;;;;;;1.10;0.77;;;;;;;;;;6095423;23;20006;-72
2024/02/12 12:02:16;;;;;;;0.73;0.50;;;;;;;;;;6098125;23;20006;-74
2024/02/12 12:04:44;;;;;;;0.70;0.60;;;;;;;;;;6090886;23;20018;-72
2024/02/12 12:07:20;;;;;;;0.75;0.60;;;;;;;;;;6097126;23;20069;-70
2024/02/12 12:09:46;;;;;;;0.40;0.40;;;;;;;;;;6068762;23;20125;-73
2024/02/12 12:12:12;;;;;;;2.47;0.98;;;;;;;;;;6091005;23;20093;-70
2024/02/12 12:14:41;;;;;;;4.38;2.55;;;;;;;;;;6092056;23;20014;-72
2024/02/12 12:17:14;;;;;;;0.40;0.30;;;;;;;;;;6042674;23;20045;-71
2024/02/12 12:19:47;;;;;;;3.60;0.73;;;;;;;;;;6091077;23;20065;-70
2024/02/12 12:22:17;;;;;;;7.28;1.42;;;;;;;;;;6093670;23;20010;-70
2024/02/12 12:24:43;;;;;;;1.77;0.80;;;;;;;;;;6070685;23;20014;-73
2024/02/12 12:27:10;;;;;;;1.67;1.23;;;;;;;;;;6095464;23;20487;-71
2024/02/12 12:29:39;;;;;;;0.57;0.57;;;;;;;;;;6090656;23;20010;-73
2024/02/12 12:32:09;;;;;;;1.58;0.52;;;;;;;;;;6090459;23;20006;-71
2024/02/12 12:34:35;;;;;;;0.70;0.50;;;;;;;;;;6089075;23;20368;-74
2024/02/12 12:37:02;;;;;;;0.60;0.50;;;;;;;;;;6093124;23;20078;-71
2024/02/12 12:39:27;;;;;;;1.20;0.70;;;;;;;;;;6090071;23;20458;-71
2024/02/12 12:41:54;;;;;;;1.02;0.60;;;;;;;;;;6089590;23;20068;-74
2024/02/12 12:44:20;;;;;;;0.70;0.60;;;;;;;;;;6094734;23;20006;-75
2024/02/12 12:46:45;;;;;;;1.40;0.73;;;;;;;;;;6091783;23;20014;-74
2024/02/12 12:49:11;;;;;;;1.08;0.75;;;;;;;;;;6081296;23;20018;-74
2024/02/12 12:51:38;;;;;;;1.92;0.60;;;;;;;;;;6091065;23;20369;-72
2024/02/12 12:54:05;;;;;;;0.70;0.60;;;;;;;;;;6068550;23;20021;-75
2024/02/12 12:56:31;;;;;;;3.88;0.60;;;;;;;;;;6098714;23;20029;-75
2024/02/12 12:58:58;;;;;;;1.35;0.68;;;;;;;;;;6097986;23;20013;-77
2024/02/12 13:01:24;;;;;;;2.08;1.10;;;;;;;;;;6096617;23;20006;-79
2024/02/12 13:03:50;;;;;;;0.75;0.60;;;;;;;;;;6100705;23;20056;-76
2024/02/12 13:06:17;;;;;;;1.15;0.77;;;;;;;;;;6098436;23;20046;-75
2024/02/12 13:08:47;;;;;;;0.70;0.60;;;;;;;;;;6096733;23;20089;-78
2024/02/12 13:11:19;;;;;;;1.23;0.82;;;;;;;;;;6098696;23;20010;-76
2024/02/12 13:13:51;;;;;;;1.10;0.77;;;;;;;;;;6099132;23;20010;-78
2024/02/12 13:16:29;;;;;;;4.05;0.90;;;;;;;;;;6101450;23;20066;-75
2024/02/12 13:18:56;;;;;;;0.70;0.60;;;;;;;;;;6093435;23;20014;-74
2024/02/12 13:21:28;;;;;;;0.75;0.70;;;;;;;;;;6092593;23;20006;-76
2024/02/12 13:24:00;;;;;;;1.75;0.70;;;;;;;;;;6091751;23;20003;-76
2024/02/12 13:26:26;;;;;;;2.03;0.50;;;;;;;;;;6100779;23;20011;-75
2024/02/12 13:28:52;;;;;;;1.25;0.43;;;;;;;;;;6100273;23;20022;-75
2024/02/12 13:31:24;;;;;;;1.67;0.82;;;;;;;;;;6100804;23;20002;-77
2024/02/12 13:33:54;;;;;;;2.22;0.70;;;;;;;;;;6097454;23;20006;-77
2024/02/12 13:36:27;;;;;;;1.30;1.20;;;;;;;;;;6075211;23;20068;-77
2024/02/12 13:39:05;;;;;;;1.42;0.93;;;;;;;;;;6097092;23;20022;-79
2024/02/12 13:41:35;;;;;;;1.13;0.70;;;;;;;;;;6097794;23;20014;-76
2024/02/12 13:44:06;;;;;;;2.15;0.80;;;;;;;;;;6094787;23;20465;-77
2024/02/12 13:46:38;;;;;;;2.33;0.93;;;;;;;;;;6069139;23;20010;-75
2024/02/12 13:49:11;;;;;;;1.65;0.80;;;;;;;;;;6073499;23;20026;-78
2024/02/12 13:51:41;;;;;;;2.13;0.73;;;;;;;;;;6098847;23;20017;-76
2024/02/12 13:54:10;;;;;;;0.80;0.70;;;;;;;;;;6097947;23;20010;-74
2024/02/12 13:56:38;;;;;;;1.42;0.73;;;;;;;;;;6098629;23;20014;-75
2024/02/12 13:59:04;;;;;;;1.80;0.70;;;;;;;;;;6097003;23;20130;-75
2024/02/12 14:01:37;;;;;;;3.40;0.55;;;;;;;;;;6089313;23;20045;-72
2024/02/12 14:04:06;;;;;;;1.90;0.38;;;;;;;;;;6091512;23;20021;-73
2024/02/12 14:06:39;;;;;;;1.85;0.80;;;;;;;;;;6094080;23;20033;-71
2024/02/12 14:09:11;;;;;;;1.88;0.80;;;;;;;;;;6092428;23;20011;-74
2024/02/12 14:11:42;;;;;;;2.90;1.08;;;;;;;;;;6091428;23;20015;-73
2024/02/12 14:14:12;;;;;;;0.57;0.50;;;;;;;;;;6096584;23;20068;-73
2024/02/12 14:16:40;;;;;;;0.88;0.40;;;;;;;;;;6100680;23;20002;-70
2024/02/12 14:19:07;;;;;;;4.05;1.70;;;;;;;;;;6097668;23;20006;-75
2024/02/12 14:21:34;;;;;;;0.95;0.70;;;;;;;;;;6097174;23;20235;-71
2024/02/12 14:24:04;;;;;;;0.43;0.32;;;;;;;;;;6098700;23;20102;-73
2024/02/12 14:26:35;;;;;;;1.50;0.50;;;;;;;;;;6099406;23;20014;-72
2024/02/12 14:29:01;;;;;;;0.57;0.43;;;;;;;;;;6099502;23;20711;-72
2024/02/12 14:31:31;;;;;;;6.28;0.63;;;;;;;;;;6097877;23;20400;-69
2024/02/12 14:34:00;;;;;;;1.40;0.75;;;;;;;;;;6098736;23;20006;-74
2024/02/12 14:36:31;;;;;;;0.63;0.40;;;;;;;;;;6095887;23;20029;-73
2024/02/12 14:39:03;;;;;;;0.80;0.50;;;;;;;;;;6095972;23;20006;-71
2024/02/12 14:41:30;;;;;;;2.47;0.60;;;;;;;;;;6092335;23;19998;-70
2024/02/12 14:44:02;;;;;;;3.28;0.40;;;;;;;;;;6094536;23;20074;-74
2024/02/12 14:46:30;;;;;;;5.65;2.00;;;;;;;;;;6071416;23;20011;-72
2024/02/12 14:49:00;;;;;;;0.68;0.50;;;;;;;;;;6092337;23;20503;-70
2024/02/12 14:51:30;;;;;;;1.95;0.60;;;;;;;;;;6096766;23;20325;-74
2024/02/12 14:53:56;;;;;;;3.47;0.50;;;;;;;;;;6100909;23;20470;-77
2024/02/12 14:56:31;;;;;;;4.95;2.00;;;;;;;;;;6098198;23;20101;-75
2024/02/12 14:58:59;;;;;;;0.90;0.73;;;;;;;;;;6098108;23;20070;-74
2024/02/12 15:01:26;;;;;;;3.40;1.00;;;;;;;;;;6098624;23;19998;-76
2024/02/12 15:03:53;;;;;;;1.15;0.75;;;;;;;;;;6100942;23;20013;-75
2024/02/12 15:06:20;;;;;;;3.63;0.80;;;;;;;;;;6099292;23;20049;-77
2024/02/12 15:08:56;;;;;;;3.10;1.10;;;;;;;;;;6098599;23;20101;-75
2024/02/12 15:11:25;;;;;;;0.93;0.73;;;;;;;;;;6099825;23;20014;-74